KCVS/CVS METAR and TAF weather

Enter ICAO airport designator
Station Type Date Time Source
KCVS METAR 2018/12/10 19:58 UTC NOAA

KCVS 101958Z AUTO 24009KT 10SM CLR 11/M04 A3028 RMK AO2 SLP252 T01071045 $


Station Type Date Time Source
KCVS Decoded METAR 2018/12/10 19:58 UTC NOAA

Cannon Air Force Base / Clovis, NM, United States (KCVS) 34-23N 103-19W
Dec 10, 2018 - 02:58 PM EST / 2018.12.10 1958 UTC
Wind: from the WSW (240 degrees) at 10 MPH (9 KT):0
Visibility: 10 mile(s):0
Sky conditions: clear
Temperature: 51.3 F (10.7 C)
Dew Point: 23.9 F (-4.5 C)
Relative Humidity: 34%
Pressure (altimeter): 30.28 in. Hg (1025 hPa)
ob: KCVS 101958Z AUTO 24009KT 10SM CLR 11/M04 A3028 RMK AO2 SLP252 T01071045
cycle: 20

Station Type Date Time Source
KCVS TAF 2018/12/10 18:51 UTC NOAA

TAF TAF KCVS 101800Z 1018/1124 25008KT 9999 FEW200 QNH3025INS
BECMG 1112/1113 21012KT 9999 BKN200 QNH3016INS
BECMG 1118/1119 24012G18KT 9999 BKN200 QNH2998INS TX14/1021Z TN00/1112Z


Example: see airport list